createdAt,value
2019-05-22T17:26:58.671Z,18.70
2019-05-22T17:28:34.281Z,19.73
2019-05-22T17:30:11.326Z,20.60
2019-05-22T17:31:46.472Z,19.63
2019-05-22T17:33:21.522Z,20.30
2019-05-22T17:34:57.986Z,21.73
2019-05-22T17:36:33.241Z,20.53
2019-05-22T17:38:09.184Z,20.03
2019-05-22T17:39:48.935Z,21.03
2019-05-22T17:41:25.180Z,21.33
2019-05-22T17:43:02.084Z,21.10
2019-05-22T17:44:38.899Z,20.63
2019-05-22T17:46:16.182Z,21.13
2019-05-22T17:47:53.865Z,23.10
2019-05-22T17:49:29.611Z,20.70
2019-05-22T17:51:05.636Z,23.20
2019-05-22T17:52:40.883Z,22.97
2019-05-22T17:54:16.525Z,22.80
2019-05-22T17:55:51.086Z,22.40
2019-05-22T17:57:26.855Z,21.93
2019-05-22T17:59:01.619Z,23.40
2019-05-22T18:00:40.445Z,23.40
2019-05-22T18:02:17.341Z,22.93
2019-05-22T18:03:52.644Z,23.23
2019-05-22T18:05:28.938Z,22.50
2019-05-22T18:07:05.183Z,22.83
2019-05-22T18:08:40.185Z,22.43
2019-05-22T18:10:16.084Z,22.70
2019-05-22T18:11:51.372Z,22.30
2019-05-22T18:13:26.730Z,21.40
2019-05-22T18:15:02.368Z,23.53
2019-05-22T18:16:38.708Z,23.77
2019-05-22T18:18:14.560Z,22.43
2019-05-22T18:19:49.574Z,21.37
2019-05-22T18:21:24.074Z,22.47
2019-05-22T18:22:59.935Z,22.23
2019-05-22T18:24:34.561Z,21.97
2019-05-22T18:26:10.006Z,21.93
2019-05-22T18:27:44.497Z,22.47
2019-05-22T18:29:19.514Z,22.53
2019-05-22T18:30:54.503Z,22.30
2019-05-22T18:32:31.536Z,22.37
2019-05-22T18:34:05.860Z,22.20
2019-05-22T18:35:41.085Z,23.57
2019-05-22T18:37:15.868Z,23.27
2019-05-22T18:38:51.151Z,23.17
2019-05-22T18:40:25.522Z,23.10
2019-05-22T18:42:00.594Z,24.80
2019-05-22T18:43:36.003Z,23.77
2019-05-22T18:45:11.882Z,23.77
2019-05-22T18:46:46.389Z,22.60
2019-05-22T18:48:22.077Z,22.50
2019-05-22T18:49:56.918Z,22.43
2019-05-22T18:51:32.267Z,23.23
2019-05-22T18:53:07.204Z,22.97
2019-05-22T18:54:42.550Z,23.93
2019-05-22T18:56:17.397Z,22.83
2019-05-22T18:57:53.123Z,23.83
2019-05-22T18:59:27.563Z,22.80
2019-05-22T19:01:02.697Z,23.60
2019-05-22T19:02:37.578Z,22.70
2019-05-22T19:04:13.038Z,22.60
2019-05-22T19:05:47.549Z,23.47
2019-05-22T19:07:22.514Z,23.27
2019-05-22T19:08:58.129Z,23.30
2019-05-22T19:10:33.290Z,23.40
2019-05-22T19:12:07.924Z,23.67
2019-05-22T19:13:42.983Z,24.40
2019-05-22T19:15:18.963Z,23.50
2019-05-22T19:16:53.981Z,23.63
2019-05-22T19:18:28.438Z,23.63
2019-05-22T19:20:03.513Z,23.60
2019-05-22T19:21:37.907Z,24.27
2019-05-22T19:23:13.297Z,24.13
2019-05-22T19:24:47.677Z,23.67
2019-05-22T19:26:22.788Z,23.10
2019-05-22T19:27:57.166Z,24.90
2019-05-22T19:29:32.587Z,25.27
2019-05-22T19:31:07.568Z,24.77
2019-05-22T19:32:42.934Z,25.17
2019-05-22T19:34:17.994Z,24.67
2019-05-22T19:35:53.449Z,24.47
2019-05-22T19:37:28.182Z,25.70
2019-05-22T19:39:03.334Z,24.37
2019-05-22T19:40:38.220Z,25.23
2019-05-22T19:42:13.342Z,25.10
2019-05-22T19:43:48.094Z,24.83
2019-05-22T19:45:23.222Z,25.87
2019-05-22T19:46:57.758Z,25.20
2019-05-22T19:48:32.831Z,24.67
2019-05-22T19:50:22.341Z,24.47
2019-05-22T19:51:45.547Z,23.13
2019-05-22T19:53:21.994Z,23.77
2019-05-22T19:54:57.316Z,23.30
2019-05-22T19:56:33.067Z,23.43
2019-05-22T19:58:09.813Z,22.73
2019-05-22T19:59:44.639Z,23.50
2019-05-22T20:01:20.035Z,22.97
2019-05-22T20:02:54.747Z,24.30
2019-05-22T20:04:30.096Z,21.87
2019-05-22T20:06:05.450Z,23.40
2019-05-22T20:07:41.521Z,22.13
2019-05-22T20:09:17.425Z,21.87
2019-05-22T20:10:52.821Z,22.70
2019-05-22T20:12:28.045Z,22.27
2019-05-22T20:14:03.060Z,21.90
2019-05-22T20:15:38.600Z,21.80
2019-05-22T20:17:14.322Z,23.30
2019-05-22T20:18:49.414Z,22.40
2019-05-22T20:20:26.285Z,23.33
2019-05-22T20:22:00.869Z,23.27
2019-05-22T20:23:37.189Z,23.30
2019-05-22T20:25:12.923Z,23.07
2019-05-22T20:26:47.950Z,24.03
2019-05-22T20:28:22.925Z,22.77
2019-05-22T20:29:58.353Z,23.40
2019-05-22T20:31:32.977Z,22.57
2019-05-22T20:33:08.606Z,22.13
2019-05-22T20:34:43.775Z,21.30
2019-05-22T20:36:19.550Z,22.43
2019-05-22T20:37:54.821Z,21.73
2019-05-22T20:39:30.649Z,21.03
2019-05-22T20:41:05.420Z,22.13
2019-05-22T20:42:41.279Z,21.93
2019-05-22T20:44:16.532Z,21.57
2019-05-22T20:45:53.989Z,22.00
2019-05-22T20:47:29.472Z,20.97
2019-05-22T20:49:04.893Z,20.43
2019-05-22T20:50:40.297Z,20.80
2019-05-22T20:52:16.525Z,20.53
2019-05-22T20:53:54.525Z,19.63
2019-05-22T20:55:29.101Z,20.30
2019-05-22T20:57:05.554Z,18.60
2019-05-22T20:58:41.285Z,19.07
2019-05-22T21:00:17.002Z,18.77
2019-05-22T21:01:52.129Z,19.10
2019-05-22T21:03:26.610Z,19.97
2019-05-22T21:05:01.884Z,19.07
2019-05-22T21:06:41.276Z,19.43
2019-05-22T21:08:18.666Z,18.67
2019-05-22T21:09:53.577Z,18.47
2019-05-22T21:11:30.073Z,18.67
2019-05-22T21:13:05.967Z,17.90
2019-05-22T21:14:41.565Z,18.53
2019-05-22T21:16:16.806Z,18.37
2019-05-22T21:17:54.093Z,17.23
2019-05-22T21:19:29.193Z,16.37
2019-05-22T21:21:04.447Z,17.37
2019-05-22T21:22:39.947Z,17.17
2019-05-22T21:24:15.354Z,17.50
2019-05-22T21:27:43.541Z,16.93
2019-05-22T21:29:19.863Z,16.93
2019-05-22T21:30:55.342Z,16.87
2019-05-22T21:32:30.941Z,16.60
2019-05-22T21:34:06.070Z,17.00
2019-05-22T21:35:41.725Z,16.77
2019-05-22T21:37:17.895Z,16.87
2019-05-22T21:38:53.930Z,16.87
2019-05-22T21:40:28.580Z,16.23
2019-05-22T21:42:04.216Z,16.10
2019-05-22T21:43:39.477Z,16.07
2019-05-22T21:45:14.981Z,16.27
2019-05-22T21:46:50.560Z,16.47
2019-05-22T21:48:26.734Z,15.30
2019-05-22T21:50:01.863Z,16.20
2019-05-22T21:51:37.596Z,15.73
2019-05-22T21:53:13.766Z,15.37
2019-05-22T21:54:48.888Z,15.27
2019-05-22T21:56:24.917Z,14.97
2019-05-22T21:58:01.117Z,15.90
2019-05-22T21:59:35.572Z,15.83
2019-05-22T22:01:20.464Z,17.40
2019-05-22T22:02:56.366Z,15.73
2019-05-22T22:04:34.622Z,15.20
2019-05-22T22:06:09.818Z,15.10
2019-05-22T22:07:45.246Z,15.93
2019-05-22T22:09:21.237Z,16.07
2019-05-22T22:10:57.301Z,15.03
2019-05-22T22:12:31.865Z,14.80
2019-05-22T22:14:07.959Z,15.43
2019-05-22T22:15:43.487Z,15.10
2019-05-22T22:17:20.259Z,14.70
2019-05-22T22:18:57.480Z,14.90
2019-05-22T22:20:33.117Z,15.47
2019-05-22T22:22:11.680Z,14.40
2019-05-22T22:23:47.561Z,15.73
2019-05-22T22:25:23.863Z,14.53
2019-05-22T22:26:58.826Z,14.87
2019-05-22T22:28:33.788Z,15.50
2019-05-22T22:30:17.450Z,15.43
2019-05-22T22:31:54.421Z,15.63
2019-05-22T22:33:31.562Z,15.50
2019-05-22T22:35:09.458Z,15.73
2019-05-22T22:36:44.899Z,15.53
2019-05-22T22:38:22.058Z,15.13
2019-05-22T22:39:57.240Z,15.53
2019-05-22T22:41:33.985Z,16.33
2019-05-22T22:43:09.983Z,15.80
2019-05-22T22:44:48.758Z,15.87
2019-05-22T22:46:45.906Z,15.27
2019-05-22T22:48:23.269Z,15.47
2019-05-22T22:49:58.884Z,15.87
2019-05-22T22:51:33.380Z,16.60
2019-05-22T22:53:08.561Z,15.63
2019-05-22T22:54:44.568Z,15.03
2019-05-22T22:56:21.405Z,15.87
2019-05-22T22:57:55.829Z,16.23
2019-05-22T22:59:31.635Z,14.97
2019-05-22T23:01:10.312Z,14.77
2019-05-22T23:02:47.089Z,14.97
2019-05-22T23:04:23.950Z,16.77
2019-05-22T23:05:59.159Z,16.03
2019-05-22T23:07:35.330Z,16.30
2019-05-22T23:09:11.347Z,15.47
2019-05-22T23:10:46.199Z,16.27
2019-05-22T23:12:22.205Z,16.50
2019-05-22T23:13:57.542Z,15.23
2019-05-22T23:15:34.011Z,15.40
2019-05-22T23:17:11.097Z,15.57
2019-05-22T23:19:41.126Z,15.03
2019-05-22T23:21:16.137Z,16.03
2019-05-22T23:22:49.259Z,14.77
2019-05-22T23:24:26.758Z,14.83
2019-05-22T23:26:02.288Z,14.47
2019-05-22T23:27:37.595Z,15.37
2019-05-22T23:29:12.956Z,15.40
2019-05-22T23:30:49.226Z,15.37
2019-05-22T23:32:24.442Z,14.23
2019-05-22T23:33:59.884Z,15.40
2019-05-22T23:35:34.757Z,15.03
2019-05-22T23:37:13.687Z,14.47
2019-05-22T23:38:50.101Z,14.43
2019-05-22T23:40:29.099Z,14.50
2019-05-22T23:42:10.071Z,14.43
2019-05-22T23:43:47.208Z,14.30
2019-05-22T23:45:22.041Z,14.60
2019-05-22T23:46:57.496Z,14.47
2019-05-22T23:48:33.567Z,14.27
2019-05-22T23:50:09.883Z,14.30
2019-05-22T23:51:45.828Z,14.17
2019-05-22T23:53:23.137Z,13.73
2019-05-22T23:54:57.873Z,14.03
2019-05-22T23:56:35.534Z,13.83
2019-05-22T23:58:12.345Z,13.93
2019-05-22T23:59:53.044Z,13.90
